Time;durP1;ratioP1;P1;durP2;ratioP2;P2;SDS_P1;SDS_P2;PMS_P1;PMS_P2;Temp;Humidity;BMP_temperature;BMP_pressure;BME280_temperature;BME280_humidity;BME280_pressure;Samples;Min_cycle;Max_cycle;Signal;HPM_P1;HPM_P2
2023/08/08 00:01:35;;;;;;;;;;;;;;;;;;4985504;28;20012;-65
2023/08/08 00:04:01;;;;;;;;;;;;;;;;;;5002814;28;20024;-65
2023/08/08 00:06:27;;;;;;;;;;;;;;;;;;5001430;28;19931;-65
2023/08/08 00:08:52;;;;;;;;;;;;;;;;;;5002268;28;20325;-65
2023/08/08 00:11:18;;;;;;;;;;;;;;;;;;5002941;28;19932;-65
2023/08/08 00:13:44;;;;;;;;;;;;;;;;;;5002802;28;19926;-64
2023/08/08 00:16:10;;;;;;;;;;;;;;;;;;5001211;28;19960;-64
2023/08/08 00:18:36;;;;;;;;;;;;;;;;;;4985434;28;19983;-65
2023/08/08 00:21:02;;;;;;;;;;;;;;;;;;4983608;28;19933;-65
2023/08/08 00:23:28;;;;;;;;;;;;;;;;;;4997977;28;19953;-65
2023/08/08 00:25:54;;;;;;;;;;;;;;;;;;4973733;28;20331;-65
2023/08/08 00:28:20;;;;;;;;;;;;;;;;;;5002606;28;19925;-66
2023/08/08 00:30:46;;;;;;;;;;;;;;;;;;5003899;28;19972;-65
2023/08/08 00:33:12;;;;;;;;;;;;;;;;;;5005559;28;19926;-65
2023/08/08 00:35:38;;;;;;;;;;;;;;;;;;5005281;28;20384;-65
2023/08/08 00:38:04;;;;;;;;;;;;;;;;;;5009179;28;19937;-65
2023/08/08 00:40:29;;;;;;;;;;;;;;;;;;5006149;28;19926;-67
2023/08/08 00:42:55;;;;;;;;;;;;;;;;;;4988512;28;19976;-65
2023/08/08 00:45:21;;;;;;;;;;;;;;;;;;5005217;28;19945;-65
2023/08/08 00:47:47;;;;;;;;;;;;;;;;;;4993401;28;19926;-65
2023/08/08 00:50:13;;;;;;;;;;;;;;;;;;5005803;28;19929;-64
2023/08/08 00:52:39;;;;;;;;;;;;;;;;;;5005521;28;20008;-65
2023/08/08 00:55:05;;;;;;;;;;;;;;;;;;5006042;28;19926;-65
2023/08/08 00:57:31;;;;;;;;;;;;;;;;;;5004268;28;20367;-65
2023/08/08 00:59:57;;;;;;;;;;;;;;;;;;4999659;28;20075;-65
2023/08/08 01:02:23;;;;;;;;;;;;;;;;;;5005874;28;20020;-65
2023/08/08 01:04:49;;;;;;;;;;;;;;;;;;5004912;28;20005;-64
2023/08/08 01:07:15;;;;;;;;;;;;;;;;;;5005331;28;19948;-64
2023/08/08 01:09:41;;;;;;;;;;;;;;;;;;5005062;28;19925;-65
2023/08/08 01:12:07;;;;;;;;;;;;;;;;;;5005890;28;19932;-64
2023/08/08 01:14:33;;;;;;;;;;;;;;;;;;5005143;28;20013;-64
2023/08/08 01:16:59;;;;;;;;;;;;;;;;;;5005669;28;20024;-65
2023/08/08 01:19:25;;;;;;;;;;;;;;;;;;5005178;28;19932;-65
2023/08/08 01:21:51;;;;;;;;;;;;;;;;;;5004567;28;19929;-65
2023/08/08 01:24:17;;;;;;;;;;;;;;;;;;5004979;28;20340;-66
2023/08/08 01:26:43;;;;;;;;;;;;;;;;;;5005270;28;19957;-65
2023/08/08 01:29:09;;;;;;;;;;;;;;;;;;5005734;28;19930;-65
2023/08/08 01:31:35;;;;;;;;;;;;;;;;;;5004643;28;19926;-67
2023/08/08 01:34:01;;;;;;;;;;;;;;;;;;5005159;28;19932;-65
2023/08/08 01:36:27;;;;;;;;;;;;;;;;;;5004350;28;19929;-65
2023/08/08 01:38:53;;;;;;;;;;;;;;;;;;5004913;28;20503;-66
2023/08/08 01:41:19;;;;;;;;;;;;;;;;;;5004888;28;19932;-66
2023/08/08 01:43:45;;;;;;;;;;;;;;;;;;5004368;28;20334;-67
2023/08/08 01:46:11;;;;;;;;;;;;;;;;;;5004633;28;19925;-67
2023/08/08 01:48:37;;;;;;;;;;;;;;;;;;5003495;28;19925;-66
2023/08/08 01:51:03;;;;;;;;;;;;;;;;;;5004342;28;20379;-64
2023/08/08 01:53:29;;;;;;;;;;;;;;;;;;5004891;28;19985;-66
2023/08/08 01:55:54;;;;;;;;;;;;;;;;;;5003779;28;20446;-66
2023/08/08 01:58:20;;;;;;;;;;;;;;;;;;5002277;28;20491;-66
2023/08/08 02:00:47;;;;;;;;;;;;;;;;;;5002961;28;19925;-66
2023/08/08 02:03:13;;;;;;;;;;;;;;;;;;5004023;28;19984;-65
2023/08/08 02:05:39;;;;;;;;;;;;;;;;;;5003776;28;19964;-66
2023/08/08 02:08:05;;;;;;;;;;;;;;;;;;5004201;28;19957;-66
2023/08/08 02:10:31;;;;;;;;;;;;;;;;;;5004581;28;19925;-68
2023/08/08 02:12:57;;;;;;;;;;;;;;;;;;5003252;28;20048;-67
2023/08/08 02:15:22;;;;;;;;;;;;;;;;;;5003954;28;20192;-66
2023/08/08 02:17:48;;;;;;;;;;;;;;;;;;5003668;28;19972;-66
2023/08/08 02:20:14;;;;;;;;;;;;;;;;;;4990458;28;19925;-66
2023/08/08 02:22:40;;;;;;;;;;;;;;;;;;4986813;28;19929;-66
2023/08/08 02:25:06;;;;;;;;;;;;;;;;;;5001896;28;19956;-66
2023/08/08 02:27:32;;;;;;;;;;;;;;;;;;4986366;28;19940;-66
2023/08/08 02:29:58;;;;;;;;;;;;;;;;;;5004232;28;20020;-66
2023/08/08 02:32:24;;;;;;;;;;;;;;;;;;4991414;28;19930;-66
2023/08/08 02:34:50;;;;;;;;;;;;;;;;;;4990156;28;19987;-66
2023/08/08 02:37:16;;;;;;;;;;;;;;;;;;5003165;28;19925;-66
2023/08/08 02:39:42;;;;;;;;;;;;;;;;;;5003900;28;19925;-67
2023/08/08 02:42:08;;;;;;;;;;;;;;;;;;5003320;28;19950;-66
2023/08/08 02:44:34;;;;;;;;;;;;;;;;;;5003793;28;19926;-66
2023/08/08 02:47:00;;;;;;;;;;;;;;;;;;5003563;28;19926;-66
2023/08/08 02:49:25;;;;;;;;;;;;;;;;;;4988950;28;20013;-66
2023/08/08 02:51:51;;;;;;;;;;;;;;;;;;5003234;28;19992;-65
2023/08/08 02:54:17;;;;;;;;;;;;;;;;;;4990529;28;20034;-66
2023/08/08 02:56:43;;;;;;;;;;;;;;;;;;4989694;28;19953;-66
2023/08/08 02:59:09;;;;;;;;;;;;;;;;;;5003327;28;19979;-66
2023/08/08 03:01:39;;;;;;;;;;;;;;;;;;4985246;28;19926;-66
2023/08/08 03:04:05;;;;;;;;;;;;;;;;;;5003447;28;19925;-66
2023/08/08 03:06:30;;;;;;;;;;;;;;;;;;5002386;28;20355;-66
2023/08/08 03:08:56;;;;;;;;;;;;;;;;;;5003263;28;20016;-65
2023/08/08 03:11:22;;;;;;;;;;;;;;;;;;4986135;28;20618;-66
2023/08/08 03:13:48;;;;;;;;;;;;;;;;;;5002027;28;20431;-65
2023/08/08 03:16:14;;;;;;;;;;;;;;;;;;5002518;28;19932;-66
2023/08/08 03:18:40;;;;;;;;;;;;;;;;;;5003531;28;19932;-65
2023/08/08 03:21:06;;;;;;;;;;;;;;;;;;5002606;28;19988;-66
2023/08/08 03:23:32;;;;;;;;;;;;;;;;;;4985939;28;19933;-66
2023/08/08 03:25:58;;;;;;;;;;;;;;;;;;5002837;28;19925;-66
2023/08/08 03:28:24;;;;;;;;;;;;;;;;;;5003400;28;19925;-65
2023/08/08 03:30:50;;;;;;;;;;;;;;;;;;5002951;28;19980;-66
2023/08/08 03:33:15;;;;;;;;;;;;;;;;;;5003508;28;19925;-66
2023/08/08 03:35:43;;;;;;;;;;;;;;;;;;5002703;28;20379;-66
2023/08/08 03:38:09;;;;;;;;;;;;;;;;;;5002516;28;20016;-66
2023/08/08 03:40:35;;;;;;;;;;;;;;;;;;5003243;28;20028;-66
2023/08/08 03:43:01;;;;;;;;;;;;;;;;;;5003488;28;19964;-65
2023/08/08 03:45:27;;;;;;;;;;;;;;;;;;5002704;28;19983;-65
2023/08/08 03:47:52;;;;;;;;;;;;;;;;;;4997039;28;19997;-65
2023/08/08 03:50:18;;;;;;;;;;;;;;;;;;4995492;28;20406;-66
2023/08/08 03:52:44;;;;;;;;;;;;;;;;;;5002395;28;20338;-65
2023/08/08 03:55:10;;;;;;;;;;;;;;;;;;5002720;28;19932;-65
2023/08/08 03:57:36;;;;;;;;;;;;;;;;;;5002903;28;19926;-66
2023/08/08 04:00:02;;;;;;;;;;;;;;;;;;5002963;28;19983;-66
2023/08/08 04:02:28;;;;;;;;;;;;;;;;;;5002118;28;19926;-66
2023/08/08 04:04:54;;;;;;;;;;;;;;;;;;5002416;28;19974;-65
2023/08/08 04:07:20;;;;;;;;;;;;;;;;;;5006623;28;19932;-66
2023/08/08 04:09:46;;;;;;;;;;;;;;;;;;5006297;28;19926;-66
2023/08/08 04:12:12;;;;;;;;;;;;;;;;;;5006990;28;19925;-66
2023/08/08 04:14:38;;;;;;;;;;;;;;;;;;5006610;28;19949;-66
2023/08/08 04:17:04;;;;;;;;;;;;;;;;;;5006058;28;19960;-66
2023/08/08 04:19:30;;;;;;;;;;;;;;;;;;5005745;28;19971;-66
2023/08/08 04:21:56;;;;;;;;;;;;;;;;;;5006149;28;19969;-66
2023/08/08 04:24:22;;;;;;;;;;;;;;;;;;5006184;28;19971;-67
2023/08/08 04:26:48;;;;;;;;;;;;;;;;;;5006430;28;19926;-66
2023/08/08 04:29:14;;;;;;;;;;;;;;;;;;5006042;28;19992;-66
2023/08/08 04:31:40;;;;;;;;;;;;;;;;;;5006662;28;19921;-66
2023/08/08 04:34:06;;;;;;;;;;;;;;;;;;5005163;28;20043;-65
2023/08/08 04:36:32;;;;;;;;;;;;;;;;;;5006868;28;19972;-66
2023/08/08 04:38:58;;;;;;;;;;;;;;;;;;5006134;28;19925;-66
2023/08/08 04:41:24;;;;;;;;;;;;;;;;;;5005875;28;19929;-66
2023/08/08 04:43:49;;;;;;;;;;;;;;;;;;4988347;28;19932;-66
2023/08/08 04:46:15;;;;;;;;;;;;;;;;;;5006782;28;19932;-66
2023/08/08 04:48:41;;;;;;;;;;;;;;;;;;5006025;28;19925;-66
2023/08/08 04:51:07;;;;;;;;;;;;;;;;;;5005486;28;20389;-66
2023/08/08 04:53:33;;;;;;;;;;;;;;;;;;5005702;28;20411;-66
2023/08/08 04:55:59;;;;;;;;;;;;;;;;;;5006297;28;20303;-66
2023/08/08 04:58:25;;;;;;;;;;;;;;;;;;5006102;28;20493;-66
2023/08/08 05:00:51;;;;;;;;;;;;;;;;;;5006291;28;19926;-66
2023/08/08 05:03:17;;;;;;;;;;;;;;;;;;5005936;28;19925;-70
2023/08/08 05:05:46;;;;;;;;;;;;;;;;;;5004385;28;19934;-65
2023/08/08 05:08:12;;;;;;;;;;;;;;;;;;5005889;28;19929;-67
2023/08/08 05:10:38;;;;;;;;;;;;;;;;;;5005952;28;19925;-66
2023/08/08 05:13:04;;;;;;;;;;;;;;;;;;5005691;28;19933;-66
2023/08/08 05:15:30;;;;;;;;;;;;;;;;;;5005078;28;19932;-66
2023/08/08 05:17:57;;;;;;;;;;;;;;;;;;5005872;28;19932;-67
2023/08/08 05:20:23;;;;;;;;;;;;;;;;;;5005114;28;20149;-65
2023/08/08 05:22:48;;;;;;;;;;;;;;;;;;5005444;28;20385;-66
2023/08/08 05:25:14;;;;;;;;;;;;;;;;;;5005024;28;20464;-66
2023/08/08 05:27:40;;;;;;;;;;;;;;;;;;5003944;28;19933;-66
2023/08/08 05:30:06;;;;;;;;;;;;;;;;;;4976587;28;19925;-66
2023/08/08 05:32:32;;;;;;;;;;;;;;;;;;5005700;28;19922;-67
2023/08/08 05:35:00;;;;;;;;;;;;;;;;;;5005429;28;20562;-66
2023/08/08 05:37:26;;;;;;;;;;;;;;;;;;5004950;28;19928;-65
2023/08/08 05:39:52;;;;;;;;;;;;;;;;;;5004925;28;20000;-66
2023/08/08 05:42:18;;;;;;;;;;;;;;;;;;5005316;28;20015;-67
2023/08/08 05:44:44;;;;;;;;;;;;;;;;;;5005771;28;20359;-63
2023/08/08 05:47:10;;;;;;;;;;;;;;;;;;5005110;28;20576;-65
2023/08/08 05:49:36;;;;;;;;;;;;;;;;;;5004518;28;19929;-69
2023/08/08 05:52:02;;;;;;;;;;;;;;;;;;5005087;28;20350;-67
2023/08/08 05:54:28;;;;;;;;;;;;;;;;;;5004804;28;19986;-66
2023/08/08 05:56:53;;;;;;;;;;;;;;;;;;5004773;28;19921;-66
2023/08/08 05:59:19;;;;;;;;;;;;;;;;;;5005157;28;20284;-66
2023/08/08 06:01:46;;;;;;;;;;;;;;;;;;5004755;28;19932;-66
2023/08/08 06:04:12;;;;;;;;;;;;;;;;;;5003909;28;19926;-69
2023/08/08 06:06:38;;;;;;;;;;;;;;;;;;5004757;28;19925;-64
2023/08/08 06:09:04;;;;;;;;;;;;;;;;;;5004305;28;19925;-64
2023/08/08 06:11:29;;;;;;;;;;;;;;;;;;5004918;28;19949;-65
2023/08/08 06:13:57;;;;;;;;;;;;;;;;;;5004060;28;21192;-66
2023/08/08 06:16:23;;;;;;;;;;;;;;;;;;5000333;28;19996;-65
2023/08/08 06:18:49;;;;;;;;;;;;;;;;;;4977883;28;19926;-65
2023/08/08 06:21:15;;;;;;;;;;;;;;;;;;5003062;28;19926;-65
2023/08/08 06:23:41;;;;;;;;;;;;;;;;;;5003917;28;20121;-65
2023/08/08 06:26:07;;;;;;;;;;;;;;;;;;5004166;28;19925;-64
2023/08/08 06:28:33;;;;;;;;;;;;;;;;;;5003022;28;19929;-66
2023/08/08 06:30:59;;;;;;;;;;;;;;;;;;5003468;28;19932;-64
2023/08/08 06:33:25;;;;;;;;;;;;;;;;;;5003945;28;19926;-65
2023/08/08 06:35:51;;;;;;;;;;;;;;;;;;4994339;28;19926;-64
2023/08/08 06:38:17;;;;;;;;;;;;;;;;;;4999807;28;19929;-64
2023/08/08 06:40:43;;;;;;;;;;;;;;;;;;5003961;28;19929;-65
2023/08/08 06:43:09;;;;;;;;;;;;;;;;;;4986894;28;19926;-64
2023/08/08 06:45:36;;;;;;;;;;;;;;;;;;5004336;28;19925;-64
2023/08/08 06:48:02;;;;;;;;;;;;;;;;;;5004333;28;19971;-64
2023/08/08 06:50:28;;;;;;;;;;;;;;;;;;5003319;28;20000;-64
2023/08/08 06:52:54;;;;;;;;;;;;;;;;;;4992653;28;20017;-64
2023/08/08 06:55:20;;;;;;;;;;;;;;;;;;4985754;28;19973;-65
2023/08/08 06:57:46;;;;;;;;;;;;;;;;;;4985942;28;19922;-64
2023/08/08 07:00:13;;;;;;;;;;;;;;;;;;5003526;28;19925;-64
2023/08/08 07:02:39;;;;;;;;;;;;;;;;;;5003625;28;20436;-65
2023/08/08 07:05:05;;;;;;;;;;;;;;;;;;5003027;28;20019;-64
2023/08/08 07:07:33;;;;;;;;;;;;;;;;;;4984140;28;20016;-65
2023/08/08 07:09:59;;;;;;;;;;;;;;;;;;4985775;28;20350;-65
2023/08/08 07:12:25;;;;;;;;;;;;;;;;;;5012517;28;19925;-65
2023/08/08 07:14:50;;;;;;;;;;;;;;;;;;5003337;28;20310;-64
2023/08/08 07:17:16;;;;;;;;;;;;;;;;;;5003304;28;20059;-64
2023/08/08 07:19:42;;;;;;;;;;;;;;;;;;5002033;28;20401;-66
2023/08/08 07:22:08;;;;;;;;;;;;;;;;;;5003534;28;19933;-65
2023/08/08 07:24:34;;;;;;;;;;;;;;;;;;5003336;28;20035;-65
2023/08/08 07:27:00;;;;;;;;;;;;;;;;;;5003464;28;19926;-65
2023/08/08 07:29:26;;;;;;;;;;;;;;;;;;5003226;28;20306;-65
2023/08/08 07:31:52;;;;;;;;;;;;;;;;;;5002029;28;19926;-65
2023/08/08 07:34:18;;;;;;;;;;;;;;;;;;5000167;28;19926;-64
2023/08/08 07:36:44;;;;;;;;;;;;;;;;;;4990977;28;19933;-65
2023/08/08 07:39:10;;;;;;;;;;;;;;;;;;4983101;28;19937;-65
2023/08/08 07:41:36;;;;;;;;;;;;;;;;;;4983509;28;19985;-65
2023/08/08 07:44:02;;;;;;;;;;;;;;;;;;4983434;28;19981;-65
2023/08/08 07:46:28;;;;;;;;;;;;;;;;;;4984004;28;21255;-65
2023/08/08 07:48:54;;;;;;;;;;;;;;;;;;4990277;28;19991;-65
2023/08/08 07:51:20;;;;;;;;;;;;;;;;;;5003163;28;19930;-66
2023/08/08 07:53:46;;;;;;;;;;;;;;;;;;5002131;28;19932;-63
2023/08/08 07:56:12;;;;;;;;;;;;;;;;;;5001069;28;19930;-64
2023/08/08 07:58:37;;;;;;;;;;;;;;;;;;5001935;28;20414;-64
2023/08/08 08:01:03;;;;;;;;;;;;;;;;;;5002807;28;19930;-63
2023/08/08 08:03:29;;;;;;;;;;;;;;;;;;5000639;28;19925;-67
2023/08/08 08:05:55;;;;;;;;;;;;;;;;;;5000428;28;20015;-68
2023/08/08 08:08:21;;;;;;;;;;;;;;;;;;4982507;28;19930;-68
2023/08/08 08:10:48;;;;;;;;;;;;;;;;;;5000991;28;20012;-67
2023/08/08 08:13:14;;;;;;;;;;;;;;;;;;4986905;28;19930;-66
2023/08/08 08:15:40;;;;;;;;;;;;;;;;;;4980697;28;19930;-68
2023/08/08 08:18:06;;;;;;;;;;;;;;;;;;4992931;28;19936;-67
2023/08/08 08:20:32;;;;;;;;;;;;;;;;;;4985988;28;20177;-68
2023/08/08 08:22:58;;;;;;;;;;;;;;;;;;4981325;28;19934;-69
2023/08/08 08:25:24;;;;;;;;;;;;;;;;;;4983014;28;19976;-66
2023/08/08 08:27:50;;;;;;;;;;;;;;;;;;4992834;28;19925;-67
2023/08/08 08:30:15;;;;;;;;;;;;;;;;;;4985990;28;19929;-67
2023/08/08 08:32:41;;;;;;;;;;;;;;;;;;4980592;28;19926;-67
2023/08/08 08:35:07;;;;;;;;;;;;;;;;;;4985655;28;19926;-66
2023/08/08 08:37:33;;;;;;;;;;;;;;;;;;5000524;28;19929;-66
2023/08/08 08:39:59;;;;;;;;;;;;;;;;;;5000510;28;20402;-66
2023/08/08 08:42:25;;;;;;;;;;;;;;;;;;4998720;28;20330;-66
2023/08/08 08:44:51;;;;;;;;;;;;;;;;;;4998847;28;19929;-66
2023/08/08 08:47:17;;;;;;;;;;;;;;;;;;4997750;28;19972;-66
2023/08/08 08:49:43;;;;;;;;;;;;;;;;;;4979367;28;19933;-66
2023/08/08 08:52:09;;;;;;;;;;;;;;;;;;4992590;28;19936;-66
2023/08/08 08:54:35;;;;;;;;;;;;;;;;;;4983480;28;20005;-66
2023/08/08 08:57:01;;;;;;;;;;;;;;;;;;4985791;28;20000;-66
2023/08/08 08:59:30;;;;;;;;;;;;;;;;;;4984797;28;20446;-66
2023/08/08 09:01:56;;;;;;;;;;;;;;;;;;5002360;28;20021;-66
2023/08/08 09:04:22;;;;;;;;;;;;;;;;;;5002831;28;19933;-66
2023/08/08 09:06:48;;;;;;;;;;;;;;;;;;5003599;28;19925;-66
2023/08/08 09:09:15;;;;;;;;;;;;;;;;;;5003146;28;19972;-66
2023/08/08 09:11:41;;;;;;;;;;;;;;;;;;5003813;28;20019;-66
2023/08/08 09:14:08;;;;;;;;;;;;;;;;;;5002539;28;20008;-67
2023/08/08 09:16:34;;;;;;;;;;;;;;;;;;5001640;28;19940;-66
2023/08/08 09:19:00;;;;;;;;;;;;;;;;;;5001706;28;19929;-66
2023/08/08 09:21:26;;;;;;;;;;;;;;;;;;5003216;28;19926;-66
2023/08/08 09:23:52;;;;;;;;;;;;;;;;;;4985494;28;19936;-66
2023/08/08 09:26:18;;;;;;;;;;;;;;;;;;5003091;28;19925;-66
2023/08/08 09:28:44;;;;;;;;;;;;;;;;;;5002823;28;19930;-66
2023/08/08 09:31:10;;;;;;;;;;;;;;;;;;5002889;28;19929;-66
2023/08/08 09:33:36;;;;;;;;;;;;;;;;;;5002269;28;19930;-67
2023/08/08 09:36:03;;;;;;;;;;;;;;;;;;5003404;28;20074;-66
2023/08/08 09:38:28;;;;;;;;;;;;;;;;;;4993998;28;19929;-67
2023/08/08 09:40:54;;;;;;;;;;;;;;;;;;4990671;28;20616;-68
2023/08/08 09:43:20;;;;;;;;;;;;;;;;;;4991896;28;20023;-67
2023/08/08 09:45:47;;;;;;;;;;;;;;;;;;4990539;28;19930;-68
2023/08/08 09:48:13;;;;;;;;;;;;;;;;;;4981487;28;19934;-66
2023/08/08 09:50:39;;;;;;;;;;;;;;;;;;4983163;28;19937;-66
2023/08/08 09:53:05;;;;;;;;;;;;;;;;;;4982847;28;20024;-66
2023/08/08 09:55:31;;;;;;;;;;;;;;;;;;4986928;28;20008;-66
2023/08/08 09:57:57;;;;;;;;;;;;;;;;;;4992010;28;19929;-67
2023/08/08 10:00:25;;;;;;;;;;;;;;;;;;4982739;28;19930;-65
2023/08/08 10:02:51;;;;;;;;;;;;;;;;;;4982961;28;20422;-65
2023/08/08 10:05:16;;;;;;;;;;;;;;;;;;4982482;28;19981;-67
2023/08/08 10:07:42;;;;;;;;;;;;;;;;;;4993639;28;19940;-66
2023/08/08 10:10:09;;;;;;;;;;;;;;;;;;4988955;28;19930;-66
2023/08/08 10:12:35;;;;;;;;;;;;;;;;;;4981970;28;19984;-66
2023/08/08 10:15:01;;;;;;;;;;;;;;;;;;4984137;28;20626;-65
2023/08/08 10:17:27;;;;;;;;;;;;;;;;;;4982488;28;19929;-67
2023/08/08 10:19:53;;;;;;;;;;;;;;;;;;4987691;28;19933;-65
2023/08/08 10:22:19;;;;;;;;;;;;;;;;;;4988247;28;19930;-68
2023/08/08 10:24:45;;;;;;;;;;;;;;;;;;4981512;28;19926;-65
2023/08/08 10:27:11;;;;;;;;;;;;;;;;;;4982594;28;20317;-66
2023/08/08 10:29:37;;;;;;;;;;;;;;;;;;4994808;28;19929;-67
2023/08/08 10:32:03;;;;;;;;;;;;;;;;;;4982907;28;19932;-63
2023/08/08 10:34:29;;;;;;;;;;;;;;;;;;4964773;28;19968;-66
2023/08/08 10:36:55;;;;;;;;;;;;;;;;;;4963860;28;20632;-66
2023/08/08 10:39:21;;;;;;;;;;;;;;;;;;4982261;28;19926;-66
2023/08/08 10:41:47;;;;;;;;;;;;;;;;;;4982368;28;19930;-66
2023/08/08 10:44:12;;;;;;;;;;;;;;;;;;4986127;28;19930;-66
2023/08/08 10:46:38;;;;;;;;;;;;;;;;;;5001781;28;19944;-67
2023/08/08 10:49:05;;;;;;;;;;;;;;;;;;5000550;28;19933;-65
2023/08/08 10:51:30;;;;;;;;;;;;;;;;;;5001393;28;19921;-68
2023/08/08 10:53:56;;;;;;;;;;;;;;;;;;4987815;28;19975;-68
2023/08/08 10:56:22;;;;;;;;;;;;;;;;;;5001727;28;20027;-68
2023/08/08 10:58:48;;;;;;;;;;;;;;;;;;5001435;28;20521;-67
2023/08/08 11:01:16;;;;;;;;;;;;;;;;;;5000473;28;19940;-66
2023/08/08 11:03:42;;;;;;;;;;;;;;;;;;5000465;28;19930;-67
2023/08/08 11:06:08;;;;;;;;;;;;;;;;;;5001984;28;20330;-67
2023/08/08 11:08:35;;;;;;;;;;;;;;;;;;5000813;28;19936;-66
2023/08/08 11:11:01;;;;;;;;;;;;;;;;;;5001546;28;19981;-67
2023/08/08 11:13:27;;;;;;;;;;;;;;;;;;5001070;28;20023;-66
2023/08/08 11:15:53;;;;;;;;;;;;;;;;;;5000688;28;19930;-65
2023/08/08 11:18:19;;;;;;;;;;;;;;;;;;5000694;28;19929;-66
2023/08/08 11:20:45;;;;;;;;;;;;;;;;;;4984127;28;19930;-66
2023/08/08 11:23:12;;;;;;;;;;;;;;;;;;4981725;28;19936;-66
2023/08/08 11:25:38;;;;;;;;;;;;;;;;;;4980087;28;19933;-65
2023/08/08 11:28:04;;;;;;;;;;;;;;;;;;4980776;28;19983;-66
2023/08/08 11:30:30;;;;;;;;;;;;;;;;;;4981899;28;20409;-66
2023/08/08 11:32:56;;;;;;;;;;;;;;;;;;4992364;28;19926;-66
2023/08/08 11:35:22;;;;;;;;;;;;;;;;;;5000862;28;19925;-66
2023/08/08 11:37:48;;;;;;;;;;;;;;;;;;5000499;28;19972;-66
2023/08/08 11:40:14;;;;;;;;;;;;;;;;;;4993006;28;19929;-66
2023/08/08 11:42:41;;;;;;;;;;;;;;;;;;4981299;28;20009;-67
2023/08/08 11:45:06;;;;;;;;;;;;;;;;;;4980956;28;19922;-66
2023/08/08 11:47:35;;;;;;;;;;;;;;;;;;4981626;28;19929;-63
2023/08/08 11:50:02;;;;;;;;;;;;;;;;;;4993176;28;19926;-66
2023/08/08 11:52:28;;;;;;;;;;;;;;;;;;4980759;28;19949;-66
2023/08/08 11:54:54;;;;;;;;;;;;;;;;;;4980708;28;20211;-65
2023/08/08 11:57:20;;;;;;;;;;;;;;;;;;4976619;28;19926;-68
2023/08/08 11:59:46;;;;;;;;;;;;;;;;;;4980982;28;19937;-66
2023/08/08 12:02:12;;;;;;;;;;;;;;;;;;4980655;28;19945;-68
2023/08/08 12:04:38;;;;;;;;;;;;;;;;;;4980189;28;19930;-65
2023/08/08 12:07:03;;;;;;;;;;;;;;;;;;4980533;28;19929;-66
2023/08/08 12:09:29;;;;;;;;;;;;;;;;;;4980967;28;20687;-66
2023/08/08 12:11:55;;;;;;;;;;;;;;;;;;4982387;28;20013;-66
2023/08/08 12:14:21;;;;;;;;;;;;;;;;;;4990059;28;20020;-66
2023/08/08 12:16:47;;;;;;;;;;;;;;;;;;4975871;28;19925;-66
2023/08/08 12:19:17;;;;;;;;;;;;;;;;;;4992689;28;19937;-66
2023/08/08 12:21:43;;;;;;;;;;;;;;;;;;4999172;28;19936;-66
2023/08/08 12:24:09;;;;;;;;;;;;;;;;;;5002566;28;19925;-66
2023/08/08 12:26:35;;;;;;;;;;;;;;;;;;5003656;28;19933;-66
2023/08/08 12:29:01;;;;;;;;;;;;;;;;;;5007089;28;19921;-66
2023/08/08 12:31:27;;;;;;;;;;;;;;;;;;5005095;28;19926;-66
2023/08/08 12:33:53;;;;;;;;;;;;;;;;;;5004247;28;19972;-66
2023/08/08 12:36:19;;;;;;;;;;;;;;;;;;5005108;28;19934;-67
2023/08/08 12:38:46;;;;;;;;;;;;;;;;;;5004546;28;20117;-67
2023/08/08 12:41:12;;;;;;;;;;;;;;;;;;4987347;28;19926;-66
2023/08/08 12:43:38;;;;;;;;;;;;;;;;;;5004981;28;19932;-66
2023/08/08 12:46:04;;;;;;;;;;;;;;;;;;5005659;28;19925;-68
2023/08/08 12:48:30;;;;;;;;;;;;;;;;;;5005506;28;20294;-68
2023/08/08 12:50:56;;;;;;;;;;;;;;;;;;5005609;28;20549;-66
2023/08/08 12:53:22;;;;;;;;;;;;;;;;;;5005706;28;20016;-67
2023/08/08 12:55:48;;;;;;;;;;;;;;;;;;5005967;28;19925;-67
2023/08/08 12:58:14;;;;;;;;;;;;;;;;;;5006026;28;20528;-66
2023/08/08 13:00:40;;;;;;;;;;;;;;;;;;5005753;28;19925;-66
2023/08/08 13:03:05;;;;;;;;;;;;;;;;;;5004846;28;19925;-65
2023/08/08 13:05:31;;;;;;;;;;;;;;;;;;5006149;28;19925;-65
2023/08/08 13:07:57;;;;;;;;;;;;;;;;;;5005685;28;19926;-65
2023/08/08 13:10:23;;;;;;;;;;;;;;;;;;5005903;28;20326;-66
2023/08/08 13:12:49;;;;;;;;;;;;;;;;;;5005462;28;19926;-66
2023/08/08 13:15:15;;;;;;;;;;;;;;;;;;5004835;28;19925;-65
2023/08/08 13:17:41;;;;;;;;;;;;;;;;;;5005083;28;20016;-66
2023/08/08 13:20:07;;;;;;;;;;;;;;;;;;5005149;28;19982;-66
2023/08/08 13:22:33;;;;;;;;;;;;;;;;;;5005100;28;20028;-66
2023/08/08 13:24:59;;;;;;;;;;;;;;;;;;4988496;28;19933;-66
2023/08/08 13:27:25;;;;;;;;;;;;;;;;;;5005017;28;20387;-66
2023/08/08 13:29:51;;;;;;;;;;;;;;;;;;5005399;28;19933;-66
2023/08/08 13:32:17;;;;;;;;;;;;;;;;;;5005585;28;19925;-66
2023/08/08 13:34:43;;;;;;;;;;;;;;;;;;5004483;28;20394;-65
2023/08/08 13:37:08;;;;;;;;;;;;;;;;;;5004468;28;19979;-66
2023/08/08 13:39:34;;;;;;;;;;;;;;;;;;5004447;28;20051;-65
2023/08/08 13:42:00;;;;;;;;;;;;;;;;;;5005687;28;19925;-67
2023/08/08 13:44:26;;;;;;;;;;;;;;;;;;5004939;28;20383;-68
2023/08/08 13:46:52;;;;;;;;;;;;;;;;;;4987861;28;20085;-65
2023/08/08 13:49:18;;;;;;;;;;;;;;;;;;5004533;28;20346;-64
2023/08/08 13:51:44;;;;;;;;;;;;;;;;;;5004526;28;19969;-65
2023/08/08 13:54:10;;;;;;;;;;;;;;;;;;5004449;28;19932;-65
2023/08/08 13:56:36;;;;;;;;;;;;;;;;;;5005092;28;19953;-65
2023/08/08 13:59:02;;;;;;;;;;;;;;;;;;4987673;28;19971;-65
2023/08/08 14:01:28;;;;;;;;;;;;;;;;;;5004908;28;19980;-65
2023/08/08 14:03:54;;;;;;;;;;;;;;;;;;5003043;28;19926;-65
2023/08/08 14:06:20;;;;;;;;;;;;;;;;;;5004828;28;19948;-65
2023/08/08 14:08:46;;;;;;;;;;;;;;;;;;5004503;28;20331;-65
2023/08/08 14:11:12;;;;;;;;;;;;;;;;;;5004758;28;19952;-66
2023/08/08 14:13:44;;;;;;;;;;;;;;;;;;5004006;28;19944;-66
2023/08/08 14:16:10;;;;;;;;;;;;;;;;;;5004806;28;20024;-66
2023/08/08 14:18:36;;;;;;;;;;;;;;;;;;5003277;28;20012;-65
2023/08/08 14:21:04;;;;;;;;;;;;;;;;;;5004717;28;19925;-65
2023/08/08 14:23:30;;;;;;;;;;;;;;;;;;5004701;28;20016;-65
2023/08/08 14:25:56;;;;;;;;;;;;;;;;;;5003861;28;20016;-65
2023/08/08 14:28:22;;;;;;;;;;;;;;;;;;5003990;28;20020;-65
2023/08/08 14:30:47;;;;;;;;;;;;;;;;;;5004272;28;19926;-66
2023/08/08 14:33:13;;;;;;;;;;;;;;;;;;5003867;28;19984;-65
2023/08/08 14:35:39;;;;;;;;;;;;;;;;;;5004258;28;19925;-66
2023/08/08 14:38:05;;;;;;;;;;;;;;;;;;5003378;28;19929;-65
2023/08/08 14:40:32;;;;;;;;;;;;;;;;;;5004553;28;19952;-66
2023/08/08 14:42:57;;;;;;;;;;;;;;;;;;5003955;28;19926;-65
2023/08/08 14:45:24;;;;;;;;;;;;;;;;;;5003551;28;20502;-66
2023/08/08 14:47:49;;;;;;;;;;;;;;;;;;5003492;28;20303;-66
2023/08/08 14:50:15;;;;;;;;;;;;;;;;;;5002400;28;19929;-66
2023/08/08 14:52:41;;;;;;;;;;;;;;;;;;5003502;28;19932;-66
2023/08/08 14:55:07;;;;;;;;;;;;;;;;;;5003682;28;19926;-67
2023/08/08 14:57:33;;;;;;;;;;;;;;;;;;5004113;28;19930;-66
2023/08/08 15:00:00;;;;;;;;;;;;;;;;;;5003696;28;19926;-65
2023/08/08 15:02:26;;;;;;;;;;;;;;;;;;4993534;28;20021;-65
2023/08/08 15:04:53;;;;;;;;;;;;;;;;;;4985598;28;20012;-65
2023/08/08 15:07:19;;;;;;;;;;;;;;;;;;4984291;28;19992;-66
2023/08/08 15:09:45;;;;;;;;;;;;;;;;;;4983680;28;20399;-64
2023/08/08 15:12:10;;;;;;;;;;;;;;;;;;4983972;28;19949;-65
2023/08/08 15:14:36;;;;;;;;;;;;;;;;;;4983220;28;19948;-65
2023/08/08 15:17:02;;;;;;;;;;;;;;;;;;4982203;28;19926;-63
2023/08/08 15:19:28;;;;;;;;;;;;;;;;;;4983314;28;19937;-64
2023/08/08 15:21:55;;;;;;;;;;;;;;;;;;4984042;28;19926;-64
2023/08/08 15:24:21;;;;;;;;;;;;;;;;;;4983723;28;19929;-64
2023/08/08 15:26:47;;;;;;;;;;;;;;;;;;4982990;28;19926;-64
2023/08/08 15:29:12;;;;;;;;;;;;;;;;;;4983944;28;20475;-64
2023/08/08 15:31:38;;;;;;;;;;;;;;;;;;4983220;28;19922;-65
2023/08/08 15:34:04;;;;;;;;;;;;;;;;;;4982727;28;19926;-64
2023/08/08 15:36:30;;;;;;;;;;;;;;;;;;4984282;28;19925;-64
2023/08/08 15:38:56;;;;;;;;;;;;;;;;;;4982744;28;19934;-64
2023/08/08 15:41:22;;;;;;;;;;;;;;;;;;4983534;28;19930;-65
2023/08/08 15:43:48;;;;;;;;;;;;;;;;;;4983609;28;20300;-65
2023/08/08 15:46:14;;;;;;;;;;;;;;;;;;4993480;28;19933;-64
2023/08/08 15:48:40;;;;;;;;;;;;;;;;;;5002323;28;19926;-64
2023/08/08 15:51:06;;;;;;;;;;;;;;;;;;5002398;28;19925;-65
2023/08/08 15:53:33;;;;;;;;;;;;;;;;;;5002995;28;19933;-64
2023/08/08 15:55:59;;;;;;;;;;;;;;;;;;5003218;28;19933;-65
2023/08/08 15:58:26;;;;;;;;;;;;;;;;;;5003038;28;19934;-65
2023/08/08 16:00:52;;;;;;;;;;;;;;;;;;5005465;28;19925;-65
2023/08/08 16:03:18;;;;;;;;;;;;;;;;;;5005283;28;20379;-65
2023/08/08 16:05:44;;;;;;;;;;;;;;;;;;5007007;28;19925;-65
2023/08/08 16:08:10;;;;;;;;;;;;;;;;;;5006912;28;19929;-65
2023/08/08 16:10:36;;;;;;;;;;;;;;;;;;5007218;28;19926;-65
2023/08/08 16:13:02;;;;;;;;;;;;;;;;;;5006817;28;19933;-65
2023/08/08 16:15:28;;;;;;;;;;;;;;;;;;5006513;28;19925;-65
2023/08/08 16:17:54;;;;;;;;;;;;;;;;;;5006072;28;19936;-64
2023/08/08 16:20:19;;;;;;;;;;;;;;;;;;5006706;28;19926;-66
2023/08/08 16:22:46;;;;;;;;;;;;;;;;;;5006685;28;19929;-64
2023/08/08 16:25:11;;;;;;;;;;;;;;;;;;5006952;28;19952;-64
2023/08/08 16:27:37;;;;;;;;;;;;;;;;;;5005757;28;19921;-65
2023/08/08 16:30:03;;;;;;;;;;;;;;;;;;5006296;28;20019;-69
2023/08/08 16:32:29;;;;;;;;;;;;;;;;;;4994896;28;19925;-68
2023/08/08 16:34:55;;;;;;;;;;;;;;;;;;4984589;28;19934;-65
2023/08/08 16:37:21;;;;;;;;;;;;;;;;;;4984687;28;20646;-65